Time;durP1;ratioP1;P1;durP2;ratioP2;P2;SDS_P1;SDS_P2;PMS_P1;PMS_P2;Temp;Humidity;BMP_temperature;BMP_pressure;BME280_temperature;BME280_humidity;BME280_pressure;Samples;Min_cycle;Max_cycle;Signal;HPM_P1;HPM_P2
2022/04/23 00:02:24;;;;;;;23.80;11.57;;;9.60;97.30;;;;;;5094084;28;20182;-87
2022/04/23 00:04:50;;;;;;;24.63;11.97;;;9.50;97.30;;;;;;5093429;28;20643;-86
2022/04/23 00:07:15;;;;;;;26.30;12.50;;;9.50;97.30;;;;;;5093922;28;20186;-85
2022/04/23 00:09:41;;;;;;;25.90;13.00;;;9.40;97.30;;;;;;5093423;28;20174;-85
2022/04/23 00:12:08;;;;;;;24.33;12.23;;;9.30;97.30;;;;;;5094004;28;20679;-86
2022/04/23 00:14:34;;;;;;;26.47;11.93;;;9.20;97.30;;;;;;5093668;28;20202;-85
2022/04/23 00:17:00;;;;;;;26.47;12.70;;;9.20;97.30;;;;;;5093547;28;20822;-86
2022/04/23 00:19:26;;;;;;;25.20;12.30;;;9.10;97.30;;;;;;5094812;28;20660;-85
2022/04/23 00:21:51;;;;;;;26.50;12.03;;;9.10;97.30;;;;;;5093672;28;20420;-86
2022/04/23 00:24:17;;;;;;;24.50;12.97;;;9.00;97.30;;;;;;5092935;28;20540;-86
2022/04/23 00:26:43;;;;;;;25.23;12.17;;;9.00;97.30;;;;;;5092604;28;20576;-86
2022/04/23 00:29:09;;;;;;;22.33;12.23;;;8.90;97.30;;;;;;5092963;28;20263;-86
2022/04/23 00:31:36;;;;;;;24.20;11.80;;;8.80;97.30;;;;;;5094488;28;20548;-84
2022/04/23 00:34:04;;;;;;;23.50;11.23;;;8.70;97.30;;;;;;5093550;28;20218;-86
2022/04/23 00:36:30;;;;;;;21.70;11.67;;;8.70;97.30;;;;;;5093259;28;20444;-86
2022/04/23 00:38:56;;;;;;;23.50;11.03;;;8.60;97.30;;;;;;5092223;28;20416;-85
2022/04/23 00:44:06;;;;;;;25.90;11.70;;;8.50;97.30;;;;;;5093963;28;20247;-85
2022/04/23 00:46:32;;;;;;;25.73;12.30;;;8.50;97.30;;;;;;5092656;28;20969;-85
2022/04/23 00:48:58;;;;;;;26.60;10.83;;;8.40;97.30;;;;;;5092561;28;20219;-84
2022/04/23 00:51:28;;;;;;;35.07;11.13;;;8.40;97.30;;;;;;5092112;28;20703;-86
2022/04/23 00:53:54;;;;;;;24.40;11.20;;;8.40;97.30;;;;;;5092309;28;20175;-77
2022/04/23 00:56:23;;;;;;;25.10;11.63;;;8.30;97.30;;;;;;5093292;28;20928;-78
2022/04/23 00:58:51;;;;;;;21.40;11.13;;;8.30;97.30;;;;;;5094897;28;20423;-76
2022/04/23 01:01:18;;;;;;;21.43;11.60;;;8.30;97.30;;;;;;5094400;28;20417;-77
2022/04/23 01:03:45;;;;;;;27.53;11.93;;;8.20;97.30;;;;;;5094176;28;20425;-77
2022/04/23 01:06:12;;;;;;;22.50;11.37;;;8.20;97.30;;;;;;5093195;28;20804;-77
2022/04/23 01:08:39;;;;;;;20.60;10.47;;;8.10;97.30;;;;;;5094714;28;20420;-76
2022/04/23 01:11:07;;;;;;;21.63;10.20;;;8.00;97.30;;;;;;5094917;28;20805;-77
2022/04/23 01:13:33;;;;;;;17.50;10.00;;;8.00;97.30;;;;;;5094566;28;20452;-77
2022/04/23 01:16:07;;;;;;;24.07;11.27;;;7.90;97.30;;;;;;5098048;28;20447;-78
2022/04/23 01:18:36;;;;;;;20.80;10.17;;;7.90;97.30;;;;;;5099122;28;20431;-78
2022/04/23 01:21:04;;;;;;;19.70;10.83;;;7.90;97.30;;;;;;5099234;28;20508;-77
2022/04/23 01:23:31;;;;;;;18.93;9.80;;;7.80;97.30;;;;;;5099200;28;20416;-78
2022/04/23 01:25:58;;;;;;;18.90;9.53;;;7.80;97.30;;;;;;5095912;28;20428;-77
2022/04/23 01:28:27;;;;;;;17.40;9.23;;;7.70;97.30;;;;;;5093334;28;20507;-77
2022/04/23 01:30:57;;;;;;;19.87;10.27;;;7.70;97.30;;;;;;5093126;28;20976;-77
2022/04/23 01:33:23;;;;;;;19.00;10.70;;;7.70;97.30;;;;;;5093807;28;20408;-77
2022/04/23 01:35:51;;;;;;;16.97;9.87;;;7.60;97.30;;;;;;5096247;28;20513;-79
2022/04/23 01:38:18;;;;;;;18.77;10.50;;;7.60;97.30;;;;;;5098861;28;20408;-77
2022/04/23 01:40:46;;;;;;;18.80;10.00;;;7.60;97.30;;;;;;5098770;28;20424;-78
2022/04/23 01:43:15;;;;;;;16.37;9.93;;;7.60;97.30;;;;;;5099103;28;20850;-77
2022/04/23 01:45:44;;;;;;;19.50;10.30;;;7.50;97.30;;;;;;5098443;28;20444;-77
2022/04/23 01:48:10;;;;;;;19.83;8.90;;;7.50;97.30;;;;;;5098834;28;20421;-77
2022/04/23 01:50:35;;;;;;;17.27;10.23;;;7.50;97.30;;;;;;5099423;28;20460;-78
2022/04/23 01:53:02;;;;;;;17.47;10.03;;;7.50;97.30;;;;;;5091496;28;20632;-77
2022/04/23 01:55:28;;;;;;;15.07;10.00;;;7.40;97.30;;;;;;5090348;28;20674;-77
2022/04/23 01:57:54;;;;;;;18.90;10.70;;;7.40;97.30;;;;;;5092011;28;20509;-77
2022/04/23 02:00:19;;;;;;;20.77;10.03;;;7.30;97.30;;;;;;5090520;28;20917;-77
2022/04/23 02:02:46;;;;;;;16.07;10.10;;;7.30;97.30;;;;;;5090590;28;20699;-77
2022/04/23 02:05:12;;;;;;;18.47;11.30;;;7.30;97.30;;;;;;5090180;28;20281;-77
2022/04/23 02:07:39;;;;;;;21.97;11.37;;;7.30;97.30;;;;;;5090340;28;20464;-77
2022/04/23 02:10:07;;;;;;;18.00;10.33;;;7.20;97.30;;;;;;5091627;28;20412;-76
2022/04/23 02:12:33;;;;;;;20.00;10.50;;;7.20;97.30;;;;;;5091694;28;20440;-77
2022/04/23 02:14:59;;;;;;;20.57;10.23;;;7.20;97.30;;;;;;5090116;28;20471;-76
2022/04/23 02:17:40;;;;;;;18.57;10.07;;;7.20;97.30;;;;;;5090329;28;20413;-76
2022/04/23 02:20:10;;;;;;;20.00;11.20;;;7.10;97.30;;;;;;5090446;28;20537;-76
2022/04/23 02:22:36;;;;;;;16.70;9.63;;;7.10;97.30;;;;;;5090336;28;20470;-77
2022/04/23 02:25:04;;;;;;;18.23;10.10;;;7.00;97.30;;;;;;5090720;28;20437;-78
2022/04/23 02:27:41;;;;;;;23.70;11.70;;;6.90;97.30;;;;;;5093046;28;20428;-79
2022/04/23 02:30:07;;;;;;;19.27;11.13;;;6.90;97.30;;;;;;5093572;28;20566;-78
2022/04/23 02:32:33;;;;;;;18.50;9.87;;;6.80;97.30;;;;;;5092585;28;20412;-79
2022/04/23 02:34:58;;;;;;;21.37;10.30;;;6.80;97.30;;;;;;5090865;28;20435;-79
2022/04/23 02:37:27;;;;;;;20.27;10.73;;;6.80;97.30;;;;;;5091483;28;20177;-79
2022/04/23 02:39:53;;;;;;;17.33;9.90;;;6.80;97.30;;;;;;5091177;28;20170;-79
2022/04/23 02:42:19;;;;;;;20.33;10.97;;;6.70;97.30;;;;;;5091476;28;20423;-79
2022/04/23 02:44:45;;;;;;;19.90;11.30;;;6.70;97.30;;;;;;5091109;28;20286;-79
2022/04/23 02:47:11;;;;;;;23.80;11.20;;;6.70;97.30;;;;;;5090888;28;20853;-79
2022/04/23 02:49:36;;;;;;;19.40;10.70;;;6.70;97.30;;;;;;5090948;28;20167;-79
2022/04/23 02:52:02;;;;;;;21.77;11.87;;;6.60;97.30;;;;;;5091391;28;20186;-79
2022/04/23 02:54:28;;;;;;;20.87;11.10;;;6.60;97.30;;;;;;5093247;28;20315;-80
2022/04/23 02:56:55;;;;;;;20.10;10.90;;;6.60;97.30;;;;;;5093504;28;20467;-80
2022/04/23 02:59:21;;;;;;;18.87;11.17;;;6.50;97.30;;;;;;5093564;28;20178;-80
2022/04/23 03:01:46;;;;;;;20.10;10.80;;;6.50;97.30;;;;;;5093506;28;20843;-80
2022/04/23 03:04:12;;;;;;;20.80;11.57;;;6.50;97.30;;;;;;5093622;28;20194;-80
2022/04/23 03:06:38;;;;;;;19.67;10.60;;;6.40;97.30;;;;;;5093050;28;20171;-81
2022/04/23 03:09:04;;;;;;;20.40;11.43;;;6.40;97.30;;;;;;5094093;28;20170;-80
2022/04/23 03:11:30;;;;;;;22.17;10.87;;;6.40;97.30;;;;;;5094955;28;20194;-80
2022/04/23 03:13:58;;;;;;;20.63;10.00;;;6.30;97.30;;;;;;5093459;28;20186;-80
2022/04/23 03:16:26;;;;;;;26.03;11.77;;;6.30;97.30;;;;;;5095375;28;20411;-80
2022/04/23 03:18:53;;;;;;;23.93;11.83;;;6.30;97.30;;;;;;5093042;28;20405;-80
2022/04/23 03:21:18;;;;;;;19.53;11.13;;;6.20;97.30;;;;;;5093037;28;20420;-80
2022/04/23 03:23:44;;;;;;;21.53;11.00;;;6.20;97.30;;;;;;5092696;28;20478;-79
2022/04/23 03:26:09;;;;;;;21.07;11.40;;;6.20;97.30;;;;;;5094121;28;20174;-80
2022/04/23 03:28:35;;;;;;;19.20;11.23;;;6.20;97.30;;;;;;5092902;28;20185;-80
2022/04/23 03:31:02;;;;;;;23.03;12.20;;;6.20;97.30;;;;;;5092248;28;20202;-80
2022/04/23 03:33:28;;;;;;;19.73;10.27;;;6.10;97.30;;;;;;5090869;28;20171;-77
2022/04/23 03:35:54;;;;;;;21.30;11.87;;;6.10;97.30;;;;;;5088436;28;20798;-77
2022/04/23 03:38:19;;;;;;;20.73;11.07;;;6.10;97.30;;;;;;5088897;28;20420;-77
2022/04/23 03:40:48;;;;;;;22.50;11.20;;;6.10;97.30;;;;;;5088631;28;20647;-77
2022/04/23 03:43:13;;;;;;;21.33;11.40;;;6.10;97.30;;;;;;5089990;28;20175;-77
2022/04/23 03:45:39;;;;;;;17.27;10.77;;;6.10;97.30;;;;;;5088290;28;20937;-77
2022/04/23 03:48:05;;;;;;;23.03;11.87;;;6.10;97.30;;;;;;5088322;28;20299;-77
2022/04/23 03:50:32;;;;;;;22.17;11.93;;;6.10;97.30;;;;;;5088977;28;20202;-78
2022/04/23 03:52:58;;;;;;;20.33;12.03;;;6.10;97.30;;;;;;5089651;28;20406;-77
2022/04/23 03:55:26;;;;;;;20.83;11.50;;;6.10;97.30;;;;;;5088132;28;20460;-77
2022/04/23 03:57:53;;;;;;;23.53;11.50;;;6.10;97.30;;;;;;5088245;28;20226;-77
2022/04/23 04:00:22;;;;;;;20.90;11.67;;;6.10;97.30;;;;;;5088417;28;20901;-78
2022/04/23 04:02:53;;;;;;;21.67;12.10;;;6.10;97.30;;;;;;5088538;28;21008;-77
2022/04/23 04:05:19;;;;;;;24.73;12.23;;;6.10;97.30;;;;;;5089446;28;20484;-77
2022/04/23 04:07:47;;;;;;;21.90;12.53;;;6.10;97.30;;;;;;5088607;28;20824;-77
2022/04/23 04:10:18;;;;;;;21.70;11.00;;;6.10;97.30;;;;;;5077606;28;20240;-77
2022/04/23 04:12:44;;;;;;;21.40;11.47;;;6.10;97.30;;;;;;5069498;28;20879;-77
2022/04/23 04:15:11;;;;;;;25.80;12.37;;;6.10;97.30;;;;;;5077940;28;20449;-80
2022/04/23 04:17:40;;;;;;;21.90;12.07;;;6.10;97.30;;;;;;5084918;28;20405;-79
2022/04/23 04:20:12;;;;;;;20.43;12.00;;;6.10;97.30;;;;;;5097253;28;20483;-79
2022/04/23 04:22:42;;;;;;;21.47;12.17;;;6.00;97.30;;;;;;5095329;28;20469;-80
2022/04/23 04:25:09;;;;;;;21.33;11.80;;;6.00;97.30;;;;;;5096262;28;20430;-79
2022/04/23 04:27:37;;;;;;;24.30;12.30;;;6.00;97.30;;;;;;5091897;28;20784;-80
2022/04/23 04:30:10;;;;;;;19.20;11.20;;;6.00;97.30;;;;;;5094300;28;20459;-80
2022/04/23 04:32:36;;;;;;;25.97;14.20;;;6.00;97.30;;;;;;5092388;28;20452;-80
2022/04/23 04:35:02;;;;;;;27.17;13.27;;;6.00;97.30;;;;;;5092616;28;20971;-79
2022/04/23 04:37:29;;;;;;;23.20;12.30;;;6.00;97.30;;;;;;5095124;28;20193;-79
2022/04/23 04:39:54;;;;;;;22.30;13.00;;;6.00;97.30;;;;;;5093022;28;20833;-79
2022/04/23 04:42:20;;;;;;;25.87;13.97;;;6.00;97.30;;;;;;5095010;28;20424;-79
2022/04/23 04:44:46;;;;;;;28.80;13.97;;;6.10;97.30;;;;;;5095831;28;20210;-79
2022/04/23 04:47:12;;;;;;;23.63;13.37;;;6.10;97.30;;;;;;5097326;28;20185;-79
2022/04/23 04:49:39;;;;;;;22.53;12.50;;;6.10;97.30;;;;;;5112136;28;20174;-80
2022/04/23 04:52:05;;;;;;;27.03;14.47;;;6.10;97.30;;;;;;5091459;28;20965;-77
2022/04/23 04:54:35;;;;;;;25.07;13.63;;;6.20;97.30;;;;;;5091676;28;20435;-77
2022/04/23 04:57:02;;;;;;;27.47;13.77;;;6.20;97.30;;;;;;5090154;28;21024;-77
2022/04/23 04:59:31;;;;;;;24.00;12.80;;;6.20;97.30;;;;;;5091786;28;20459;-77
2022/04/23 05:01:57;;;;;;;24.20;14.20;;;6.20;97.30;;;;;;5089736;28;20420;-77
2022/04/23 05:04:23;;;;;;;28.57;14.00;;;6.20;97.30;;;;;;5091887;28;20795;-77
2022/04/23 05:06:49;;;;;;;24.30;13.20;;;6.20;97.30;;;;;;5091545;28;20413;-77
2022/04/23 05:09:16;;;;;;;25.70;14.00;;;6.30;97.30;;;;;;5091505;28;20435;-77
2022/04/23 05:11:43;;;;;;;25.53;12.63;;;6.30;97.30;;;;;;5089331;28;20211;-78
2022/04/23 05:14:08;;;;;;;29.23;13.93;;;6.30;97.30;;;;;;5090635;28;20456;-77
2022/04/23 05:16:34;;;;;;;27.57;13.70;;;6.30;97.30;;;;;;5092628;28;20440;-77
2022/04/23 05:19:00;;;;;;;24.13;13.00;;;6.30;97.30;;;;;;5090094;28;20175;-77
2022/04/23 05:21:26;;;;;;;31.40;14.23;;;6.30;97.30;;;;;;5092299;28;20175;-77
2022/04/23 05:23:52;;;;;;;32.53;15.07;;;6.40;97.30;;;;;;5090760;28;20541;-77
2022/04/23 05:26:18;;;;;;;22.93;13.10;;;6.40;97.30;;;;;;5090455;28;20421;-77
2022/04/23 05:28:45;;;;;;;25.03;13.13;;;6.50;97.30;;;;;;5092042;28;20219;-77
2022/04/23 05:31:10;;;;;;;28.83;14.20;;;6.50;97.30;;;;;;5090620;28;20524;-77
2022/04/23 05:33:36;;;;;;;30.97;14.67;;;6.50;97.30;;;;;;5091962;28;20894;-76
2022/04/23 05:36:06;;;;;;;27.93;13.23;;;6.60;97.30;;;;;;5090437;28;20194;-77
2022/04/23 05:38:36;;;;;;;27.30;15.80;;;6.60;97.30;;;;;;5091928;28;20163;-78
2022/04/23 05:41:03;;;;;;;30.37;14.33;;;6.60;97.30;;;;;;5090782;28;20405;-77
2022/04/23 05:43:29;;;;;;;30.50;14.87;;;6.70;97.30;;;;;;5092156;28;20979;-77
2022/04/23 05:46:00;;;;;;;33.47;15.10;;;6.70;97.30;;;;;;5091991;28;20429;-77
2022/04/23 05:48:27;;;;;;;31.03;15.07;;;6.70;97.30;;;;;;5091071;28;20900;-76
2022/04/23 05:50:55;;;;;;;26.63;14.20;;;6.80;97.30;;;;;;5091312;28;20501;-77
2022/04/23 05:53:20;;;;;;;30.67;14.17;;;6.80;97.30;;;;;;5089971;28;20839;-77
2022/04/23 05:55:46;;;;;;;26.13;15.20;;;6.90;97.30;;;;;;5086168;28;20434;-77
2022/04/23 05:58:11;;;;;;;25.30;13.63;;;7.00;97.30;;;;;;5084553;28;20684;-77
2022/04/23 06:00:37;;;;;;;27.07;14.57;;;7.00;97.30;;;;;;5090903;28;20223;-77
2022/04/23 06:03:02;;;;;;;28.50;14.57;;;7.10;97.30;;;;;;5088554;28;20690;-77
2022/04/23 06:05:29;;;;;;;26.10;14.10;;;7.20;97.30;;;;;;5088543;28;20201;-77
2022/04/23 06:07:55;;;;;;;25.77;14.23;;;7.30;97.30;;;;;;5093289;28;20178;-77
2022/04/23 06:10:21;;;;;;;26.10;13.90;;;7.40;97.30;;;;;;5091150;28;20440;-78
2022/04/23 06:12:49;;;;;;;28.30;14.33;;;7.50;97.30;;;;;;5094013;28;20504;-76
2022/04/23 06:15:18;;;;;;;25.73;13.80;;;7.60;97.30;;;;;;5082253;28;20713;-77
2022/04/23 06:17:45;;;;;;;24.03;14.33;;;7.70;97.30;;;;;;5093286;28;20852;-77
2022/04/23 06:20:12;;;;;;;27.50;13.80;;;7.70;97.30;;;;;;5090082;28;20415;-76
2022/04/23 06:22:38;;;;;;;31.97;17.70;;;7.80;97.30;;;;;;5091602;28;20444;-78
2022/04/23 06:25:05;;;;;;;32.47;15.70;;;7.90;97.30;;;;;;5083953;28;20464;-78
2022/04/23 06:27:31;;;;;;;25.57;14.40;;;8.00;97.30;;;;;;5081459;28;20752;-77
2022/04/23 06:29:58;;;;;;;22.63;13.70;;;8.10;97.30;;;;;;5072601;28;20446;-77
2022/04/23 06:32:23;;;;;;;25.23;13.77;;;8.30;97.30;;;;;;5070510;28;20290;-77
2022/04/23 06:34:49;;;;;;;25.57;13.83;;;8.30;97.30;;;;;;5069881;28;20509;-78
2022/04/23 06:37:18;;;;;;;25.27;15.00;;;8.50;97.30;;;;;;5079739;28;20220;-78
2022/04/23 06:39:44;;;;;;;22.20;13.17;;;8.50;97.30;;;;;;5091165;28;20172;-78
2022/04/23 06:42:09;;;;;;;23.97;13.07;;;8.70;97.30;;;;;;5078722;28;20425;-77
2022/04/23 06:44:35;;;;;;;17.50;10.60;;;8.80;97.30;;;;;;5070331;28;20218;-78
2022/04/23 06:47:01;;;;;;;20.30;11.10;;;9.00;97.30;;;;;;5070121;28;20208;-77
2022/04/23 06:49:27;;;;;;;15.30;10.40;;;9.10;97.30;;;;;;5069182;28;20176;-77
2022/04/23 06:51:54;;;;;;;14.10;8.33;;;9.20;97.30;;;;;;5072417;28;20347;-78
2022/04/23 06:54:21;;;;;;;15.20;9.60;;;9.40;97.30;;;;;;5072181;28;20445;-77
2022/04/23 06:56:46;;;;;;;15.87;8.47;;;9.50;97.30;;;;;;5071488;28;20564;-77
2022/04/23 06:59:12;;;;;;;26.23;8.90;;;9.60;97.20;;;;;;5069724;28;20519;-76
2022/04/23 07:01:40;;;;;;;14.13;8.37;;;9.70;96.10;;;;;;5068145;28;20179;-75
2022/04/23 07:04:10;;;;;;;15.53;8.43;;;9.80;95.40;;;;;;5067249;28;20972;-76
2022/04/23 07:06:35;;;;;;;14.63;7.50;;;9.90;95.10;;;;;;5067806;28;20876;-76
2022/04/23 07:09:01;;;;;;;14.87;8.93;;;10.00;94.40;;;;;;5067607;28;20417;-77
2022/04/23 07:11:27;;;;;;;13.80;8.07;;;10.00;93.30;;;;;;5067849;28;20293;-77
2022/04/23 07:13:52;;;;;;;13.10;7.83;;;10.00;93.20;;;;;;5067920;28;20599;-77
2022/04/23 07:16:18;;;;;;;13.80;7.67;;;10.10;93.80;;;;;;5070092;28;20171;-76
2022/04/23 07:18:44;;;;;;;11.37;7.70;;;10.30;93.90;;;;;;5070304;28;20240;-78
2022/04/23 07:21:09;;;;;;;11.63;7.40;;;10.40;93.60;;;;;;5070738;28;20174;-76
2022/04/23 07:26:19;;;;;;;14.33;7.60;;;10.60;93.10;;;;;;5070787;28;20181;-77
2022/04/23 07:28:45;;;;;;;15.10;8.30;;;10.70;93.10;;;;;;5068994;28;21024;-78
2022/04/23 07:31:11;;;;;;;11.83;7.40;;;10.80;92.30;;;;;;5070224;28;20206;-77
2022/04/23 07:39:04;;;;;;;9.67;6.50;;;11.10;91.00;;;;;;5070387;28;20435;-76
2022/04/23 07:41:30;;;;;;;9.27;6.20;;;11.20;90.90;;;;;;5068866;28;20425;-77
2022/04/23 07:43:56;;;;;;;9.47;6.07;;;11.40;90.60;;;;;;5069001;28;20179;-78
2022/04/23 07:46:22;;;;;;;9.53;6.30;;;11.40;88.10;;;;;;5069827;28;20233;-77
2022/04/23 07:48:48;;;;;;;10.90;6.40;;;11.40;88.20;;;;;;5070210;28;20418;-77
2022/04/23 07:51:13;;;;;;;8.53;5.77;;;11.40;87.40;;;;;;5071459;28;20238;-77
2022/04/23 07:53:39;;;;;;;10.90;6.23;;;11.40;87.50;;;;;;5069766;28;20216;-78
2022/04/23 07:56:05;;;;;;;11.00;6.33;;;11.40;88.10;;;;;;5069511;28;20732;-77
2022/04/23 07:58:30;;;;;;;10.00;6.60;;;11.50;88.20;;;;;;5069449;28;20688;-78
2022/04/23 08:00:56;;;;;;;8.97;6.50;;;11.70;88.20;;;;;;5069738;28;20555;-77
2022/04/23 08:03:22;;;;;;;8.40;5.17;;;11.90;87.20;;;;;;5069544;28;20444;-77
2022/04/23 08:05:47;;;;;;;9.20;5.40;;;11.90;85.60;;;;;;5069628;28;20199;-79
2022/04/23 08:08:21;;;;;;;9.80;5.70;;;11.90;86.30;;;;;;5071212;28;20217;-77
2022/04/23 08:10:48;;;;;;;10.47;5.80;;;12.00;85.70;;;;;;5074813;28;20207;-77
2022/04/23 08:13:14;;;;;;;10.20;5.93;;;11.90;85.20;;;;;;5073277;28;20421;-77
2022/04/23 08:15:40;;;;;;;7.80;4.90;;;12.00;85.60;;;;;;5070697;28;20985;-78
2022/04/23 08:18:06;;;;;;;8.03;5.10;;;12.10;84.70;;;;;;5074698;28;20414;-77
2022/04/23 08:20:32;;;;;;;9.40;5.43;;;12.20;83.30;;;;;;5073506;28;20175;-79
2022/04/23 08:22:58;;;;;;;9.23;5.50;;;12.30;84.60;;;;;;5074030;28;20467;-78
2022/04/23 08:25:23;;;;;;;8.30;5.63;;;12.40;83.50;;;;;;5073326;28;20203;-76
2022/04/23 08:30:34;;;;;;;8.27;5.53;;;12.50;82.90;;;;;;5073799;28;20175;-77
2022/04/23 08:30:42;;;;;;;7.13;4.80;;;12.60;83.30;;;;;;5075091;28;20199;-78
2022/04/23 08:33:08;;;;;;;7.60;5.40;;;12.70;83.50;;;;;;5075372;28;20773;-78
2022/04/23 08:35:37;;;;;;;10.07;6.40;;;12.80;82.70;;;;;;5072755;28;20226;-78
2022/04/23 08:38:04;;;;;;;7.70;5.87;;;12.90;84.20;;;;;;5073305;28;20417;-78
2022/04/23 08:40:36;;;;;;;9.30;6.10;;;13.00;83.20;;;;;;5073007;28;20428;-78
2022/04/23 08:43:02;;;;;;;9.17;6.07;;;13.00;83.40;;;;;;5073859;28;20421;-78
2022/04/23 08:45:29;;;;;;;10.83;6.07;;;13.00;82.00;;;;;;5073683;28;20437;-79
2022/04/23 08:47:58;;;;;;;7.70;5.50;;;13.00;81.60;;;;;;5073826;28;20432;-78
2022/04/23 08:50:26;;;;;;;14.97;6.27;;;13.00;81.70;;;;;;5073129;28;20501;-78
2022/04/23 08:52:56;;;;;;;8.40;5.70;;;13.00;81.90;;;;;;5074448;28;20418;-81
2022/04/23 08:55:25;;;;;;;10.10;5.60;;;13.00;82.60;;;;;;5074135;28;20441;-80
2022/04/23 08:57:51;;;;;;;8.97;6.13;;;13.10;82.50;;;;;;5073826;28;20860;-81
2022/04/23 09:00:17;;;;;;;8.63;5.90;;;13.20;83.60;;;;;;5074317;28;20422;-81
2022/04/23 09:02:44;;;;;;;8.33;5.70;;;13.40;82.40;;;;;;5075677;28;20521;-80
2022/04/23 09:05:13;;;;;;;9.27;6.13;;;13.40;82.30;;;;;;5075205;28;20433;-81
2022/04/23 09:07:40;;;;;;;9.00;6.27;;;13.40;81.40;;;;;;5073803;28;20421;-80
2022/04/23 09:10:06;;;;;;;16.70;7.10;;;13.40;81.40;;;;;;5074361;28;20413;-80
2022/04/23 09:12:32;;;;;;;8.40;5.80;;;13.50;83.20;;;;;;5072930;28;20527;-81
2022/04/23 09:23:43;;;;;;;9.23;6.03;;;13.60;81.30;;;;;;5076485;28;20508;-81
2022/04/23 09:26:20;;;;;;;9.33;6.37;;;13.80;81.10;;;;;;5075856;28;20925;-81
2022/04/23 09:28:48;;;;;;;11.50;5.93;;;13.80;81.30;;;;;;5074170;28;20429;-81
2022/04/23 09:31:15;;;;;;;8.20;5.33;;;13.90;82.90;;;;;;5074415;28;20453;-81
2022/04/23 09:33:48;;;;;;;11.50;6.13;;;14.20;82.90;;;;;;5075197;28;20409;-80
2022/04/23 09:36:14;;;;;;;7.47;5.73;;;14.50;81.30;;;;;;5076705;28;20494;-81
2022/04/23 09:38:40;;;;;;;7.77;5.50;;;14.50;80.00;;;;;;5095167;28;20421;-81
2022/04/23 09:41:19;;;;;;;12.67;5.17;;;14.50;79.30;;;;;;5095115;28;20185;-80
2022/04/23 09:43:51;;;;;;;8.40;5.07;;;14.40;79.50;;;;;;5097955;28;20190;-80
2022/04/23 09:46:19;;;;;;;7.10;5.40;;;14.60;79.10;;;;;;5099088;28;20424;-81
2022/04/23 09:49:05;;;;;;;10.43;5.70;;;14.60;79.20;;;;;;5101253;28;20409;-81
2022/04/23 09:51:31;;;;;;;7.63;4.83;;;14.70;78.70;;;;;;5108042;28;20830;-81
2022/04/23 09:53:56;;;;;;;10.33;4.33;;;14.80;79.20;;;;;;5095311;28;20417;-81
2022/04/23 09:56:26;;;;;;;6.00;3.83;;;15.00;79.00;;;;;;5085605;28;20174;-81
2022/04/23 09:58:53;;;;;;;5.57;4.47;;;15.20;79.20;;;;;;5093444;28;20174;-81
2022/04/23 10:01:21;;;;;;;10.80;4.57;;;15.40;78.60;;;;;;5097499;28;20425;-82
2022/04/23 10:03:50;;;;;;;6.17;5.00;;;15.60;78.30;;;;;;5095827;28;20785;-81
2022/04/23 10:06:24;;;;;;;9.60;5.20;;;15.60;77.90;;;;;;5095516;28;20500;-81
2022/04/23 10:09:05;;;;;;;7.07;5.10;;;15.40;77.00;;;;;;5097972;28;20903;-81
2022/04/23 10:11:31;;;;;;;6.83;4.90;;;15.30;77.70;;;;;;5095186;28;20524;-81
2022/04/23 10:14:08;;;;;;;6.60;5.10;;;15.20;77.40;;;;;;5106202;28;20515;-82
2022/04/23 10:16:36;;;;;;;6.77;4.50;;;15.20;78.20;;;;;;5081128;28;20478;-81
2022/04/23 10:19:02;;;;;;;6.77;4.27;;;15.30;76.80;;;;;;5109184;28;20559;-81
2022/04/23 10:21:44;;;;;;;6.70;4.13;;;15.40;77.90;;;;;;5089058;28;20785;-82
2022/04/23 10:24:33;;;;;;;6.27;4.30;;;15.50;78.90;;;;;;5083076;28;20441;-81
2022/04/23 10:27:10;;;;;;;5.80;4.23;;;15.70;77.40;;;;;;5090946;28;20417;-82
2022/04/23 10:29:37;;;;;;;7.33;4.70;;;15.80;77.50;;;;;;5074595;28;20906;-81
2022/04/23 10:32:15;;;;;;;9.80;4.40;;;15.70;77.30;;;;;;5090474;28;20465;-81
2022/04/23 10:34:42;;;;;;;7.03;4.23;;;15.70;75.70;;;;;;5090437;28;20951;-82
2022/04/23 10:37:21;;;;;;;5.80;4.60;;;15.80;76.60;;;;;;5093952;28;20448;-82
2022/04/23 10:39:52;;;;;;;5.47;4.07;;;15.90;77.00;;;;;;5093845;28;20423;-81
2022/04/23 10:42:19;;;;;;;5.27;4.33;;;16.10;77.70;;;;;;5093908;28;20432;-82
2022/04/23 10:44:46;;;;;;;7.63;4.33;;;16.30;77.30;;;;;;5093272;28;20981;-81
2022/04/23 10:47:32;;;;;;;4.90;3.90;;;16.30;76.20;;;;;;5093459;28;20429;-82
2022/04/23 10:50:18;;;;;;;5.73;4.40;;;16.30;77.80;;;;;;5095211;28;20416;-78
2022/04/23 10:52:44;;;;;;;7.00;4.73;;;16.50;76.60;;;;;;5092695;28;20926;-78
2022/04/23 10:55:14;;;;;;;5.80;4.57;;;16.60;75.40;;;;;;5093002;28;20443;-77
2022/04/23 10:57:49;;;;;;;7.20;4.67;;;16.80;76.10;;;;;;5092371;28;20988;-79
2022/04/23 11:00:17;;;;;;;6.43;4.60;;;16.80;75.00;;;;;;5094137;28;20408;-78
2022/04/23 11:02:47;;;;;;;5.93;4.10;;;16.80;76.30;;;;;;5094288;28;20420;-79
2022/04/23 11:13:49;;;;;;;8.30;4.63;;;17.40;75.10;;;;;;5094405;28;20834;-79
2022/04/23 11:16:20;;;;;;;17.33;4.70;;;17.40;75.20;;;;;;5092379;28;20409;-78
2022/04/23 11:18:49;;;;;;;6.70;4.87;;;17.40;75.30;;;;;;5093019;28;20413;-79
2022/04/23 11:21:28;;;;;;;5.77;4.13;;;17.40;75.40;;;;;;5092878;28;20425;-79
2022/04/23 11:23:56;;;;;;;6.30;4.60;;;17.50;75.90;;;;;;5094613;28;20416;-79
2022/04/23 11:26:38;;;;;;;6.20;4.33;;;17.60;74.30;;;;;;5093210;28;20836;-78
2022/04/23 11:29:05;;;;;;;6.00;4.40;;;17.60;74.40;;;;;;5093345;28;20420;-79
2022/04/23 11:31:31;;;;;;;5.50;4.23;;;17.60;74.90;;;;;;5095128;28;20486;-79
2022/04/23 11:33:58;;;;;;;6.67;4.27;;;17.70;75.40;;;;;;5093852;28;20910;-78
2022/04/23 11:36:29;;;;;;;4.90;3.93;;;17.80;73.60;;;;;;5093704;28;20777;-79
2022/04/23 11:39:06;;;;;;;7.20;3.80;;;18.00;74.80;;;;;;5093803;28;20419;-79
2022/04/23 11:41:49;;;;;;;5.77;4.20;;;18.00;72.90;;;;;;5093515;28;20511;-79
2022/04/23 11:47:04;;;;;;;5.93;3.80;;;18.00;75.20;;;;;;5094692;28;20391;-79
2022/04/23 11:49:33;;;;;;;6.73;4.63;;;18.10;73.30;;;;;;5094259;28;20416;-79
2022/04/23 11:52:11;;;;;;;6.40;4.70;;;18.30;74.70;;;;;;5097831;28;20484;-79
2022/04/23 11:54:45;;;;;;;6.53;4.40;;;18.30;73.20;;;;;;5098878;28;20464;-77
2022/04/23 11:57:19;;;;;;;6.10;3.83;;;18.30;73.50;;;;;;5098118;28;20468;-79
2022/04/23 11:59:51;;;;;;;4.63;3.93;;;18.30;74.20;;;;;;5097964;28;20838;-78
2022/04/23 12:02:19;;;;;;;5.83;3.37;;;18.30;75.20;;;;;;5099299;28;20845;-78
2022/04/23 12:04:45;;;;;;;5.47;3.50;;;18.50;72.50;;;;;;5096961;28;20444;-79
2022/04/23 12:07:12;;;;;;;7.83;3.97;;;18.50;71.40;;;;;;5097035;28;20945;-79
2022/04/23 12:09:54;;;;;;;4.13;3.47;;;18.50;72.10;;;;;;5097407;28;20424;-78
2022/04/23 12:12:33;;;;;;;4.87;3.60;;;18.70;71.90;;;;;;5097462;28;20464;-78
2022/04/23 12:15:06;;;;;;;14.90;3.63;;;18.70;70.80;;;;;;5097610;28;20436;-79
2022/04/23 12:17:49;;;;;;;5.03;3.83;;;18.90;72.30;;;;;;5097708;28;20481;-79
2022/04/23 12:20:19;;;;;;;5.23;3.87;;;19.10;71.30;;;;;;5098171;28;20924;-79
2022/04/23 12:22:58;;;;;;;11.47;4.20;;;19.30;71.80;;;;;;5099681;28;20412;-79
2022/04/23 12:25:25;;;;;;;5.20;4.37;;;19.40;71.70;;;;;;5098288;28;20440;-80
2022/04/23 12:28:03;;;;;;;5.27;3.70;;;19.30;71.30;;;;;;5096684;28;20482;-79
2022/04/23 12:41:55;;;;;;;6.20;3.63;;;19.60;71.00;;;;;;5099134;28;20408;-79
2022/04/23 12:44:22;;;;;;;4.83;3.70;;;19.90;71.20;;;;;;5096071;28;20441;-79
2022/04/23 12:47:02;;;;;;;5.07;3.43;;;20.10;68.80;;;;;;5096537;28;20425;-79
2022/04/23 12:49:58;;;;;;;4.13;3.53;;;20.20;69.00;;;;;;5094806;28;20412;-81
2022/04/23 12:52:44;;;;;;;4.53;3.47;;;20.00;69.20;;;;;;5094759;28;20467;-81
2022/04/23 12:55:17;;;;;;;6.00;3.77;;;20.00;69.20;;;;;;5094609;28;20436;-81
2022/04/23 12:57:45;;;;;;;5.53;4.23;;;20.00;70.80;;;;;;5094866;28;20468;-81
2022/04/23 13:00:14;;;;;;;5.30;3.93;;;20.20;69.50;;;;;;5094486;28;20420;-80
2022/04/23 13:02:43;;;;;;;4.87;3.53;;;20.20;69.90;;;;;;5094838;28;20421;-81
2022/04/23 13:05:10;;;;;;;5.13;3.90;;;20.20;69.60;;;;;;5094159;28;20452;-82
2022/04/23 13:10:28;;;;;;;3.70;3.60;;;20.50;69.20;;;;;;5079323;28;20421;-81
2022/04/23 13:12:54;;;;;;;4.57;3.70;;;20.70;69.50;;;;;;5094981;28;21003;-81
2022/04/23 13:15:20;;;;;;;3.37;3.27;;;20.80;70.50;;;;;;5094540;28;20432;-81
2022/04/23 13:17:46;;;;;;;5.13;3.50;;;20.80;67.50;;;;;;5094335;28;20225;-81
2022/04/23 13:20:13;;;;;;;7.03;3.83;;;20.90;68.40;;;;;;5094025;28;20640;-80
2022/04/23 13:22:43;;;;;;;4.17;3.40;;;21.00;68.30;;;;;;5094824;28;20910;-80
2022/04/23 13:25:11;;;;;;;4.97;3.50;;;21.10;68.30;;;;;;5094847;28;20436;-82
2022/04/23 13:27:37;;;;;;;5.43;3.77;;;21.20;68.30;;;;;;5096416;28;20421;-81
2022/04/23 13:30:04;;;;;;;4.10;3.70;;;21.10;68.10;;;;;;5094887;28;20790;-81
2022/04/23 13:32:32;;;;;;;5.73;4.03;;;21.30;68.10;;;;;;5094220;28;20476;-82